Time;durP1;ratioP1;P1;durP2;ratioP2;P2;SDS_P1;SDS_P2;PMS_P1;PMS_P2;Temp;Humidity;BMP_temperature;BMP_pressure;BME280_temperature;BME280_humidity;BME280_pressure;Samples;Min_cycle;Max_cycle;Signal;HPM_P1;HPM_P2
2024/04/22 00:01:49;;;;;;;1.50;0.90;;;;;;;9.95;86.60;100150.19;5312063;27;20025;-77
2024/04/22 00:04:54;;;;;;;3.55;1.00;;;;;;;10.02;87.17;100158.53;5311025;27;20025;-76
2024/04/22 00:07:59;;;;;;;2.25;0.95;;;;;;;10.00;87.25;100141.75;5312609;27;20025;-77
2024/04/22 00:11:03;;;;;;;1.77;0.90;;;;;;;9.91;87.47;100129.13;5315267;27;20466;-75
2024/04/22 00:14:11;;;;;;;1.92;0.90;;;;;;;9.81;88.39;100137.16;5315452;27;20029;-78
2024/04/22 00:17:16;;;;;;;1.90;0.70;;;;;;;9.79;88.45;100137.28;5315249;27;20025;-82
2024/04/22 00:20:22;;;;;;;3.75;1.65;;;;;;;9.74;88.96;100139.53;5315078;27;20033;-77
2024/04/22 00:23:27;;;;;;;2.22;1.25;;;;;;;9.82;89.21;100141.53;5313806;27;20364;-78
2024/04/22 00:26:32;;;;;;;4.75;1.80;;;;;;;9.74;89.46;100127.97;5314838;27;20022;-75
2024/04/22 00:29:36;;;;;;;3.70;1.80;;;;;;;9.80;88.89;100117.53;5328711;26;20367;-76
2024/04/22 00:32:41;;;;;;;4.22;2.35;;;;;;;10.03;87.93;100120.00;5349485;26;20028;-78
2024/04/22 00:35:57;;;;;;;6.10;2.15;;;;;;;9.87;88.42;100112.50;5349368;26;20391;-77
2024/04/22 00:39:02;;;;;;;3.65;1.70;;;;;;;9.91;88.21;100115.72;5349371;26;20456;-81
2024/04/22 00:42:06;;;;;;;3.58;1.63;;;;;;;10.00;87.14;100120.31;5347891;26;20025;-77
2024/04/22 00:45:11;;;;;;;4.03;1.30;;;;;;;9.98;87.41;100116.88;5349213;26;20037;-75
2024/04/22 00:48:18;;;;;;;6.05;1.70;;;;;;;10.02;87.68;100112.97;5349072;26;20021;-76
2024/04/22 00:51:23;;;;;;;2.92;1.40;;;;;;;10.00;86.73;100110.41;5349065;26;20025;-79
2024/04/22 00:54:28;;;;;;;3.25;1.30;;;;;;;10.08;86.48;100107.88;5349021;26;20021;-75
2024/04/22 00:57:36;;;;;;;3.55;1.20;;;;;;;10.15;86.42;100116.25;5348936;26;20316;-77
2024/04/22 01:00:44;;;;;;;4.15;1.40;;;;;;;10.13;87.36;100111.03;5348743;26;20028;-80
2024/04/22 01:03:50;;;;;;;2.88;1.40;;;;;;;10.17;87.15;100111.63;5348936;26;20028;-79
2024/04/22 01:06:55;;;;;;;2.80;1.40;;;;;;;10.22;87.26;100109.38;5347560;26;20021;-78
2024/04/22 01:10:02;;;;;;;3.40;1.63;;;;;;;10.11;86.98;100109.44;5348902;26;20021;-78
2024/04/22 01:13:07;;;;;;;2.50;1.58;;;;;;;10.11;86.31;100114.81;5348776;26;20025;-77
2024/04/22 01:16:12;;;;;;;3.38;1.48;;;;;;;10.12;86.03;100106.66;5347602;26;20040;-80
2024/04/22 01:19:16;;;;;;;2.70;1.50;;;;;;;9.94;86.37;100099.38;5311053;27;20033;-80
2024/04/22 01:22:21;;;;;;;2.85;1.30;;;;;;;10.16;85.57;100104.56;5311083;27;20026;-79
2024/04/22 01:25:29;;;;;;;2.63;1.52;;;;;;;10.17;86.01;100106.25;5311182;27;20493;-76
2024/04/22 01:28:34;;;;;;;2.08;1.23;;;;;;;10.24;85.74;100102.03;5291617;27;20493;-74
2024/04/22 01:31:39;;;;;;;3.15;1.20;;;;;;;10.25;86.06;100101.03;5310736;27;20034;-77
2024/04/22 01:34:44;;;;;;;4.85;1.10;;;;;;;10.22;87.18;100093.28;5309948;27;20029;-77
2024/04/22 01:37:48;;;;;;;2.10;1.13;;;;;;;10.20;87.00;100096.09;5311485;27;20033;-78
2024/04/22 01:40:53;;;;;;;2.22;1.05;;;;;;;10.04;87.32;100093.06;5308869;27;20033;-78
2024/04/22 01:43:57;;;;;;;2.70;1.25;;;;;;;10.01;87.84;100082.63;5277012;27;20032;-75
2024/04/22 01:47:02;;;;;;;2.70;1.15;;;;;;;10.10;87.91;100081.78;5276672;27;20030;-76
2024/04/22 01:50:07;;;;;;;1.60;0.90;;;;;;;10.04;88.44;100073.44;5257261;27;20022;-75
2024/04/22 01:53:12;;;;;;;1.92;1.00;;;;;;;9.99;89.15;100067.66;5276982;27;20034;-75
2024/04/22 01:56:16;;;;;;;4.35;1.10;;;;;;;10.05;88.82;100062.56;5294449;27;20421;-75
2024/04/22 01:59:22;;;;;;;3.47;1.10;;;;;;;9.96;89.23;100052.69;5346007;26;20041;-77
2024/04/22 02:02:29;;;;;;;2.63;1.15;;;;;;;9.95;89.69;100044.78;5346982;26;20025;-75
2024/04/22 02:05:34;;;;;;;1.70;0.93;;;;;;;9.86;89.86;100049.13;5346708;26;20021;-74
2024/04/22 02:08:39;;;;;;;3.03;1.25;;;;;;;9.91;90.76;100038.00;5348094;26;20033;-79
2024/04/22 02:11:43;;;;;;;2.80;1.10;;;;;;;9.94;90.61;100045.75;5346767;26;20024;-75
2024/04/22 02:14:48;;;;;;;2.03;0.98;;;;;;;10.01;90.81;100042.38;5324844;26;20503;-75
2024/04/22 02:17:52;;;;;;;2.80;1.40;;;;;;;9.95;91.10;100031.38;5342980;26;20464;-78
2024/04/22 02:20:57;;;;;;;2.00;1.05;;;;;;;9.96;90.81;100033.06;5344856;26;20391;-76
2024/04/22 02:27:19;;;;;;;2.13;0.98;;;;;;;10.00;90.63;100035.31;5324962;26;20464;-78
2024/04/22 02:30:23;;;;;;;1.85;1.10;;;;;;;9.93;91.31;100022.59;5343954;26;20017;-74
2024/04/22 02:33:28;;;;;;;1.95;0.90;;;;;;;9.91;90.99;100025.44;5344710;26;20032;-75
2024/04/22 02:36:33;;;;;;;2.00;1.00;;;;;;;9.77;91.00;100013.28;5344571;26;20025;-76
2024/04/22 02:39:38;;;;;;;3.80;1.17;;;;;;;9.75;91.70;100009.88;5344262;26;20485;-75
2024/04/22 02:42:43;;;;;;;1.92;0.98;;;;;;;9.74;91.32;100007.34;5344165;26;20029;-80
2024/04/22 02:45:47;;;;;;;1.60;0.90;;;;;;;9.63;91.06;100005.63;5344454;26;20025;-78
2024/04/22 02:48:52;;;;;;;1.63;0.80;;;;;;;9.65;90.98;99995.59;5344465;26;20402;-80
2024/04/22 02:51:56;;;;;;;1.50;0.88;;;;;;;9.58;91.99;99985.59;5346030;26;20025;-77
2024/04/22 02:55:01;;;;;;;1.63;0.85;;;;;;;9.53;91.84;99985.16;5346916;26;20033;-79
2024/04/22 02:58:06;;;;;;;1.45;0.80;;;;;;;9.57;91.69;99974.03;5347477;26;20029;-79
2024/04/22 03:01:10;;;;;;;2.50;1.10;;;;;;;9.62;91.49;99981.66;5347478;26;20021;-75
2024/04/22 03:04:15;;;;;;;1.83;0.90;;;;;;;9.73;91.82;99976.16;5347059;26;20025;-78
2024/04/22 03:07:19;;;;;;;1.48;0.85;;;;;;;9.76;91.05;99973.22;5347050;26;20025;-80
2024/04/22 03:10:24;;;;;;;5.82;1.02;;;;;;;9.69;91.49;99972.94;5347357;26;20037;-75
2024/04/22 03:13:29;;;;;;;2.05;1.02;;;;;;;9.62;91.51;99963.75;5347112;26;20029;-75
2024/04/22 03:16:33;;;;;;;2.28;1.17;;;;;;;9.71;90.94;99960.22;5346979;26;20024;-74
2024/04/22 03:19:38;;;;;;;2.20;1.00;;;;;;;9.63;90.41;99959.22;5347629;26;20028;-79
2024/04/22 03:22:43;;;;;;;1.98;0.85;;;;;;;9.47;91.51;99950.88;5347020;26;20025;-78
2024/04/22 03:25:47;;;;;;;2.30;1.20;;;;;;;9.37;91.17;99961.56;5347104;26;20021;-77
2024/04/22 03:28:52;;;;;;;2.33;1.02;;;;;;;9.51;92.16;99953.13;5346794;26;20484;-73
2024/04/22 03:31:57;;;;;;;1.80;1.00;;;;;;;9.42;92.56;99958.47;5346770;26;20036;-75
2024/04/22 03:35:02;;;;;;;2.47;1.27;;;;;;;9.36;92.90;99951.81;5346716;26;20033;-80
2024/04/22 03:38:07;;;;;;;2.30;1.23;;;;;;;9.37;93.02;99961.56;5346865;26;20029;-78
2024/04/22 03:41:11;;;;;;;2.08;1.15;;;;;;;9.37;93.46;99953.53;5346431;26;20372;-77
2024/04/22 03:44:16;;;;;;;3.42;1.63;;;;;;;9.32;93.71;99953.09;5345205;26;20028;-75
2024/04/22 03:50:44;;;;;;;3.67;1.95;;;;;;;9.46;94.23;99949.16;5344888;26;20037;-76
2024/04/22 03:53:49;;;;;;;3.22;1.73;;;;;;;9.40;93.67;99958.63;5325688;26;20037;-79
2024/04/22 03:56:54;;;;;;;3.13;1.83;;;;;;;9.43;93.61;99944.09;5346318;26;20086;-78
2024/04/22 03:59:58;;;;;;;3.53;2.20;;;;;;;9.40;94.11;99950.59;5346252;26;20473;-77
2024/04/22 04:03:03;;;;;;;3.35;2.03;;;;;;;9.52;93.48;99959.34;5346272;26;20021;-79
2024/04/22 04:06:08;;;;;;;3.00;2.35;;;;;;;9.53;94.05;99961.06;5344435;26;20373;-80
2024/04/22 04:09:13;;;;;;;3.95;2.53;;;;;;;9.32;94.87;99963.81;5346331;26;20468;-78
2024/04/22 04:12:18;;;;;;;4.45;2.40;;;;;;;9.36;94.73;99957.19;5346368;26;20029;-80
2024/04/22 04:15:22;;;;;;;4.00;2.60;;;;;;;9.68;94.09;99968.53;5346028;26;20029;-76
2024/04/22 04:18:27;;;;;;;4.07;2.97;;;;;;;9.68;93.67;99949.78;5346410;26;20496;-82
2024/04/22 04:21:32;;;;;;;4.03;2.83;;;;;;;9.69;93.18;99946.13;5325537;26;20021;-77
2024/04/22 04:24:37;;;;;;;5.03;2.65;;;;;;;9.59;93.95;99952.44;5344825;26;20025;-79
2024/04/22 04:27:41;;;;;;;5.20;3.13;;;;;;;9.71;93.54;99954.88;5346253;26;20033;-78
2024/04/22 04:30:56;;;;;;;4.38;2.65;;;;;;;9.56;94.47;99944.69;5344962;26;20480;-80
2024/04/22 04:34:02;;;;;;;5.18;2.60;;;;;;;9.85;93.58;99961.66;5345937;26;20025;-80
2024/04/22 04:37:06;;;;;;;5.70;2.58;;;;;;;10.00;92.64;99951.38;5345855;26;20040;-81
2024/04/22 04:40:11;;;;;;;3.42;2.65;;;;;;;9.97;92.80;99952.50;5345845;26;20021;-79
2024/04/22 04:43:16;;;;;;;3.13;2.00;;;;;;;10.00;92.59;99954.06;5345764;26;20025;-78
2024/04/22 04:46:21;;;;;;;3.28;2.10;;;;;;;9.94;92.58;99949.25;5345777;26;20021;-76
2024/04/22 04:49:25;;;;;;;2.60;1.77;;;;;;;10.15;91.41;99942.78;5342202;26;20424;-79
2024/04/22 04:52:30;;;;;;;4.95;2.88;;;;;;;9.96;91.30;99939.22;5344668;26;20025;-77
2024/04/22 04:55:35;;;;;;;2.80;2.13;;;;;;;10.02;91.47;99944.88;5311809;27;20033;-79
2024/04/22 04:58:40;;;;;;;3.40;2.25;;;;;;;10.01;91.49;99929.78;5311746;27;20088;-77
2024/04/22 05:01:44;;;;;;;3.00;2.30;;;;;;;9.85;91.82;99945.56;5311467;27;20033;-78
2024/04/22 05:04:49;;;;;;;4.00;2.17;;;;;;;9.66;91.40;99929.47;5311290;27;20129;-75
2024/04/22 05:07:55;;;;;;;4.05;2.17;;;;;;;9.53;92.22;99939.63;5311334;27;20029;-77
2024/04/22 05:11:03;;;;;;;3.00;1.98;;;;;;;9.62;93.13;99934.28;5311345;27;20461;-75
2024/04/22 05:14:08;;;;;;;3.13;2.05;;;;;;;9.74;92.83;99933.16;5311337;27;20026;-75
2024/04/22 05:17:13;;;;;;;5.88;2.20;;;;;;;9.72;92.67;99928.94;5311297;27;20030;-76
2024/04/22 05:20:18;;;;;;;3.30;1.77;;;;;;;9.78;92.74;99923.84;5311360;27;20030;-77
2024/04/22 05:23:22;;;;;;;4.55;2.33;;;;;;;9.86;92.52;99923.13;5311155;27;20364;-75
2024/04/22 05:26:27;;;;;;;3.38;1.98;;;;;;;9.72;92.78;99919.06;5319758;26;20029;-76
2024/04/22 05:29:32;;;;;;;3.63;2.08;;;;;;;9.79;91.59;99922.00;5314089;27;20026;-76
2024/04/22 05:32:38;;;;;;;2.92;1.80;;;;;;;9.90;92.16;99932.59;5313277;27;20025;-76
2024/04/22 05:39:08;;;;;;;3.50;1.90;;;;;;;9.89;92.39;99943.47;5314003;27;20029;-76
2024/04/22 05:42:13;;;;;;;4.03;2.00;;;;;;;10.00;91.81;99935.28;5313860;27;20029;-79
2024/04/22 05:45:18;;;;;;;3.97;2.50;;;;;;;9.89;92.25;99940.78;5313874;27;20022;-75
2024/04/22 05:48:23;;;;;;;2.97;2.15;;;;;;;10.08;91.75;99935.41;5313790;27;20029;-78
2024/04/22 05:51:28;;;;;;;4.55;2.38;;;;;;;10.17;91.92;99923.88;5313698;27;20332;-76
2024/04/22 05:54:33;;;;;;;2.88;2.10;;;;;;;9.85;92.99;99931.34;5313795;27;20368;-76
2024/04/22 05:57:38;;;;;;;2.90;2.28;;;;;;;9.75;93.01;99934.00;5313793;27;20029;-78
2024/04/22 06:00:42;;;;;;;3.00;2.38;;;;;;;9.71;93.45;99928.06;5345012;26;20033;-76
2024/04/22 06:03:47;;;;;;;3.67;2.40;;;;;;;9.64;94.36;99926.94;5313698;27;20032;-77
2024/04/22 06:06:53;;;;;;;4.63;1.95;;;;;;;9.72;94.56;99932.47;5312851;27;20029;-81
2024/04/22 06:09:57;;;;;;;4.68;2.50;;;;;;;9.83;93.85;99920.72;5313768;27;20095;-73
2024/04/22 06:13:03;;;;;;;3.53;2.22;;;;;;;9.79;94.28;99920.19;5313577;27;20033;-76
2024/04/22 06:16:08;;;;;;;2.95;2.20;;;;;;;10.02;93.31;99906.50;5313625;27;20077;-72
2024/04/22 06:19:13;;;;;;;3.17;2.05;;;;;;;10.09;93.25;99921.88;5313547;27;20028;-71
2024/04/22 06:22:17;;;;;;;4.32;2.42;;;;;;;10.26;91.91;99926.56;5313612;27;20340;-76
2024/04/22 06:25:22;;;;;;;3.70;2.20;;;;;;;9.95;92.61;99924.97;5313725;27;20029;-82
2024/04/22 06:28:28;;;;;;;3.05;2.30;;;;;;;10.10;92.55;99928.91;5312419;27;20005;-81
2024/04/22 06:31:33;;;;;;;3.17;2.20;;;;;;;9.96;93.04;99933.88;5313625;27;20029;-76
2024/04/22 06:34:38;;;;;;;3.33;1.90;;;;;;;9.83;93.46;99926.94;5313510;27;20473;-78
2024/04/22 06:37:43;;;;;;;2.90;1.80;;;;;;;9.93;93.07;99935.00;5313170;27;20026;-78
2024/04/22 06:40:47;;;;;;;3.97;2.10;;;;;;;9.78;93.54;99934.56;5330766;26;20469;-71
2024/04/22 06:43:52;;;;;;;3.28;2.00;;;;;;;9.92;93.07;99924.41;5330292;26;20029;-78
2024/04/22 06:46:58;;;;;;;2.67;1.85;;;;;;;9.96;92.90;99923.13;5347901;26;20361;-74
2024/04/22 06:50:03;;;;;;;5.80;2.67;;;;;;;10.10;92.21;99931.59;5345739;26;20040;-78
2024/04/22 06:53:08;;;;;;;2.90;2.00;;;;;;;9.80;92.10;99913.81;5347652;26;20029;-80
2024/04/22 06:56:13;;;;;;;5.75;1.95;;;;;;;9.54;93.46;99926.06;5346857;26;20024;-76
2024/04/22 06:59:18;;;;;;;3.97;2.05;;;;;;;9.72;92.27;99924.41;5347197;26;20024;-80
2024/04/22 07:02:24;;;;;;;4.65;2.30;;;;;;;9.53;92.71;99921.69;5346779;26;20488;-79
2024/04/22 07:05:29;;;;;;;4.75;2.33;;;;;;;9.57;92.37;99922.28;5347037;26;20036;-76
2024/04/22 07:08:34;;;;;;;4.35;2.17;;;;;;;9.58;92.31;99908.72;5346789;26;20106;-79
2024/04/22 07:11:39;;;;;;;2.72;1.80;;;;;;;9.51;92.62;99909.41;5346933;26;20029;-80
2024/04/22 07:14:44;;;;;;;3.67;2.38;;;;;;;9.53;92.82;99907.47;5346930;26;20024;-76
2024/04/22 07:17:48;;;;;;;2.83;1.95;;;;;;;9.69;91.97;99908.63;5309325;27;20025;-79
2024/04/22 07:20:53;;;;;;;4.65;2.42;;;;;;;9.36;93.12;99910.78;5309307;27;20101;-78
2024/04/22 07:23:57;;;;;;;3.38;2.22;;;;;;;9.46;92.78;99907.16;5309826;27;20089;-76
2024/04/22 07:27:02;;;;;;;4.32;2.10;;;;;;;9.50;93.26;99908.59;5270239;27;20490;-83
2024/04/22 07:30:08;;;;;;;3.90;2.00;;;;;;;9.61;92.99;99913.81;5309407;27;20061;-81
2024/04/22 07:33:13;;;;;;;3.50;1.85;;;;;;;9.29;93.74;99917.69;5289599;27;20025;-76
2024/04/22 07:36:25;;;;;;;3.00;2.10;;;;;;;9.48;94.01;99910.53;5308583;27;20022;-83
2024/04/22 07:39:33;;;;;;;5.82;2.95;;;;;;;9.53;93.47;99910.16;5309418;27;20030;-81
2024/04/22 07:42:38;;;;;;;4.10;2.35;;;;;;;9.56;92.57;99916.06;5309250;27;20029;-82
2024/04/22 07:45:42;;;;;;;6.88;2.70;;;;;;;9.10;95.07;99924.69;5309608;27;20145;-75
2024/04/22 07:48:47;;;;;;;4.45;2.45;;;;;;;9.50;94.51;99923.81;5309375;27;20026;-81
2024/04/22 07:51:52;;;;;;;4.72;2.60;;;;;;;9.28;94.16;99937.44;5309218;27;20384;-81
2024/04/22 07:54:57;;;;;;;3.97;2.65;;;;;;;8.99;95.12;99931.97;5275561;26;20025;-80
2024/04/22 07:58:02;;;;;;;3.53;2.38;;;;;;;9.23;95.21;99928.97;5346809;26;20029;-79
2024/04/22 08:01:07;;;;;;;3.20;2.30;;;;;;;9.29;94.67;99936.44;5345372;26;20033;-78
2024/04/22 08:04:12;;;;;;;4.00;2.22;;;;;;;9.44;94.33;99938.59;5347017;26;20037;-81
2024/04/22 08:07:19;;;;;;;5.38;2.70;;;;;;;9.38;94.80;99946.34;5344016;26;20364;-75
2024/04/22 08:10:24;;;;;;;5.82;2.33;;;;;;;9.24;94.50;99944.88;5346447;26;20458;-80
2024/04/22 08:13:29;;;;;;;4.13;2.08;;;;;;;9.35;94.44;99936.75;5346401;26;20033;-75
2024/04/22 08:16:34;;;;;;;5.88;2.80;;;;;;;9.42;94.55;99937.03;5346319;26;20033;-79
2024/04/22 08:19:40;;;;;;;11.27;7.93;;;;;;;9.57;93.24;99931.16;5346181;26;20033;-78
2024/04/22 08:22:45;;;;;;;7.50;3.13;;;;;;;9.48;93.14;99915.91;5345936;26;20025;-76
2024/04/22 08:25:52;;;;;;;4.28;2.55;;;;;;;10.01;91.16;99915.53;5345991;26;20437;-83
2024/04/22 08:28:57;;;;;;;3.78;2.53;;;;;;;9.72;92.20;99919.06;5347652;26;20025;-78
2024/04/22 08:32:03;;;;;;;3.80;2.40;;;;;;;9.50;92.08;99930.03;5328626;26;20356;-77
2024/04/22 08:35:08;;;;;;;5.85;2.40;;;;;;;9.46;93.38;99923.22;5348431;26;20025;-80
2024/04/22 08:38:13;;;;;;;3.28;2.45;;;;;;;9.46;92.91;99904.47;5349252;26;20041;-79
2024/04/22 08:41:18;;;;;;;2.97;1.70;;;;;;;9.39;93.11;99889.94;5349341;26;20372;-81
2024/04/22 08:44:24;;;;;;;4.15;2.17;;;;;;;9.35;93.13;99899.25;5349339;26;20025;-76
2024/04/22 08:47:29;;;;;;;3.08;2.00;;;;;;;9.43;93.10;99898.56;5349086;26;20025;-79
2024/04/22 08:50:36;;;;;;;4.97;2.40;;;;;;;9.44;92.89;99919.00;5348638;26;20033;-78
2024/04/22 08:53:41;;;;;;;3.08;1.75;;;;;;;9.27;93.70;99923.19;5349066;26;20027;-76
2024/04/22 08:56:47;;;;;;;3.47;1.98;;;;;;;9.36;92.83;99926.88;5348909;26;20025;-78
2024/04/22 08:59:52;;;;;;;3.17;1.90;;;;;;;9.26;93.91;99924.16;5349018;26;20029;-76
2024/04/22 09:02:57;;;;;;;4.53;1.63;;;;;;;9.10;93.66;99923.84;5348921;26;20032;-80
2024/04/22 09:06:02;;;;;;;4.20;2.00;;;;;;;9.13;94.67;99937.78;5347798;26;20033;-77
2024/04/22 09:09:11;;;;;;;5.78;1.83;;;;;;;9.44;93.86;99927.88;5348923;26;20029;-76
2024/04/22 09:12:17;;;;;;;5.28;2.08;;;;;;;9.27;93.96;99933.91;5347749;26;20367;-83
2024/04/22 09:15:21;;;;;;;3.22;1.98;;;;;;;9.38;93.60;99938.31;5348962;26;20106;-81
2024/04/22 09:18:26;;;;;;;3.22;1.80;;;;;;;9.39;93.46;99948.88;5348676;26;20029;-80
2024/04/22 09:21:38;;;;;;;4.03;2.00;;;;;;;9.40;93.19;99947.06;5349050;26;20367;-80
2024/04/22 09:24:44;;;;;;;4.30;2.00;;;;;;;9.30;93.66;99949.72;5348730;26;20024;-80
2024/04/22 09:27:50;;;;;;;3.42;1.83;;;;;;;9.18;93.94;99955.31;5348781;26;20029;-80
2024/04/22 09:31:00;;;;;;;3.75;1.90;;;;;;;9.66;92.77;99949.09;5348820;26;20021;-81
2024/04/22 09:34:05;;;;;;;4.75;2.50;;;;;;;9.61;93.35;99950.47;5349076;26;20394;-80
2024/04/22 09:37:10;;;;;;;5.00;2.30;;;;;;;9.74;93.29;99943.03;5349509;26;20460;-80
2024/04/22 09:40:16;;;;;;;6.07;3.17;;;;;;;9.69;93.30;99931.88;5347692;26;20025;-77
2024/04/22 09:43:22;;;;;;;6.82;2.10;;;;;;;9.87;92.24;99926.69;5348542;26;20429;-78
2024/04/22 09:46:30;;;;;;;4.60;2.65;;;;;;;9.87;92.70;99937.41;5347499;26;20033;-77
2024/04/22 09:49:36;;;;;;;5.93;2.88;;;;;;;9.86;92.75;99935.69;5347079;26;20121;-76
2024/04/22 09:52:41;;;;;;;3.30;1.58;;;;;;;9.39;93.23;99934.63;5348363;26;20053;-77
2024/04/22 09:55:47;;;;;;;5.70;1.85;;;;;;;9.80;93.16;99927.22;5348228;26;20033;-77
2024/04/22 09:58:52;;;;;;;3.55;1.58;;;;;;;10.02;92.25;99930.63;5347316;26;20025;-74
2024/04/22 10:01:57;;;;;;;2.95;1.67;;;;;;;9.93;92.66;99926.09;5347138;26;20021;-76
2024/04/22 10:05:13;;;;;;;6.15;1.85;;;;;;;10.11;91.92;99937.81;5348372;26;20036;-77
2024/04/22 10:08:20;;;;;;;4.88;1.98;;;;;;;10.09;91.63;99929.06;5347986;26;20021;-77
2024/04/22 10:11:30;;;;;;;3.53;1.80;;;;;;;10.21;91.88;99933.31;5348044;26;20025;-77
2024/04/22 10:14:36;;;;;;;4.82;1.98;;;;;;;10.00;92.00;99932.63;5346910;26;20360;-76
2024/04/22 10:17:44;;;;;;;5.35;2.05;;;;;;;10.12;92.25;99918.91;5348024;26;20044;-80
2024/04/22 10:20:49;;;;;;;2.25;1.45;;;;;;;9.86;91.75;99919.59;5348140;26;20024;-78
2024/04/22 10:23:55;;;;;;;2.30;1.42;;;;;;;9.80;92.45;99903.09;5346707;26;20021;-77
2024/04/22 10:27:06;;;;;;;3.28;1.92;;;;;;;9.87;92.18;99900.72;5347675;26;20025;-76
2024/04/22 10:30:12;;;;;;;2.83;1.90;;;;;;;9.63;93.07;99914.50;5347839;26;20029;-78
2024/04/22 10:33:17;;;;;;;3.45;2.20;;;;;;;9.74;93.75;99895.63;5347794;26;20033;-76
2024/04/22 10:36:23;;;;;;;3.55;2.10;;;;;;;9.94;93.31;99890.28;5347846;26;20032;-75
2024/04/22 10:39:28;;;;;;;4.72;2.47;;;;;;;10.17;92.51;99900.56;5347701;26;20024;-80
2024/04/22 10:42:33;;;;;;;3.55;1.98;;;;;;;10.01;92.44;99888.72;5347658;26;20021;-79
2024/04/22 10:45:38;;;;;;;2.83;2.05;;;;;;;10.06;92.50;99891.81;5346648;26;20025;-78
2024/04/22 10:48:43;;;;;;;6.50;2.00;;;;;;;9.95;92.74;99902.69;5347427;26;20456;-79
2024/04/22 10:51:49;;;;;;;4.10;2.22;;;;;;;10.12;91.88;99893.97;5345977;26;20036;-79
2024/04/22 10:54:54;;;;;;;4.60;3.17;;;;;;;10.10;92.89;99885.16;5346346;26;20456;-77
2024/04/22 10:57:59;;;;;;;4.25;2.60;;;;;;;9.95;92.61;99897.34;5346337;26;20024;-78
2024/04/22 11:01:04;;;;;;;3.88;2.72;;;;;;;10.05;92.91;99892.81;5346388;26;20021;-78
2024/04/22 11:04:11;;;;;;;4.90;2.60;;;;;;;10.08;93.43;99903.22;5347314;26;20465;-75
2024/04/22 11:07:16;;;;;;;6.15;2.72;;;;;;;10.09;93.95;99899.56;5347366;26;20465;-79
2024/04/22 11:10:21;;;;;;;3.67;2.10;;;;;;;9.96;92.80;99907.91;5347800;26;20025;-76
2024/04/22 11:13:26;;;;;;;3.92;2.28;;;;;;;9.82;94.09;99911.88;5346664;26;20029;-75
2024/04/22 11:16:32;;;;;;;3.85;2.38;;;;;;;9.77;94.32;99907.91;5347148;26;20033;-75
2024/04/22 11:19:37;;;;;;;3.72;2.22;;;;;;;9.65;94.46;99915.22;5347041;26;20025;-75
2024/04/22 11:22:43;;;;;;;5.30;2.65;;;;;;;9.80;93.97;99915.69;5346967;26;20048;-75
2024/04/22 11:25:48;;;;;;;5.70;2.50;;;;;;;9.78;94.08;99920.31;5347112;26;20468;-76
2024/04/22 11:28:55;;;;;;;5.03;2.70;;;;;;;9.89;93.69;99913.97;5345677;26;20376;-75
2024/04/22 11:32:01;;;;;;;5.30;2.65;;;;;;;9.83;92.71;99916.22;5346831;26;20029;-75
2024/04/22 11:35:06;;;;;;;4.80;2.50;;;;;;;9.99;92.75;99921.03;5347141;26;20025;-76
2024/04/22 11:38:20;;;;;;;3.38;1.83;;;;;;;9.78;91.79;99921.16;5346862;26;20021;-75
2024/04/22 11:41:25;;;;;;;2.97;1.90;;;;;;;9.80;92.02;99921.03;5346915;26;20029;-76
2024/04/22 11:44:30;;;;;;;2.95;1.55;;;;;;;9.57;91.96;99917.78;5345731;26;20032;-77
2024/04/22 11:47:35;;;;;;;3.03;1.45;;;;;;;9.75;90.81;99921.44;5346747;26;20021;-75
2024/04/22 11:50:40;;;;;;;2.10;1.25;;;;;;;10.03;89.98;99921.59;5345357;26;20033;-74
2024/04/22 11:53:45;;;;;;;2.63;1.05;;;;;;;9.93;88.19;99926.94;5345295;26;20024;-76
2024/04/22 11:56:52;;;;;;;2.47;1.23;;;;;;;9.99;89.07;99918.34;5346502;26;20037;-74
2024/04/22 11:59:57;;;;;;;2.45;1.40;;;;;;;9.89;89.36;99932.75;5346540;26;20037;-76
2024/04/22 12:03:03;;;;;;;3.10;1.17;;;;;;;10.06;89.53;99915.94;5346488;26;20041;-77
2024/04/22 12:06:09;;;;;;;2.47;1.45;;;;;;;10.16;89.23;99924.88;5349703;26;20029;-77
2024/04/22 12:09:14;;;;;;;3.40;1.40;;;;;;;10.24;89.67;99919.63;5349639;26;20370;-76
2024/04/22 12:12:19;;;;;;;2.95;1.80;;;;;;;10.27;89.44;99924.72;5348521;26;20029;-76
2024/04/22 12:15:24;;;;;;;2.80;1.90;;;;;;;10.30;89.56;99917.22;5350019;26;20021;-79
2024/04/22 12:18:30;;;;;;;4.97;1.80;;;;;;;10.34;88.88;99912.44;5348912;26;20024;-78
2024/04/22 12:21:35;;;;;;;3.20;1.88;;;;;;;10.29;88.85;99903.97;5348375;26;20371;-79
2024/04/22 12:24:40;;;;;;;2.72;1.60;;;;;;;10.24;87.73;99912.44;5349388;26;20024;-80
2024/04/22 12:27:45;;;;;;;3.88;2.00;;;;;;;10.26;88.26;99912.28;5348424;26;20025;-77
2024/04/22 12:30:51;;;;;;;2.60;1.20;;;;;;;9.79;86.51;99914.81;5348328;26;20025;-77
2024/04/22 12:33:55;;;;;;;3.13;1.42;;;;;;;10.11;87.44;99913.69;5349596;26;20033;-79
2024/04/22 12:37:00;;;;;;;2.60;1.42;;;;;;;10.13;87.80;99901.84;5349700;26;20028;-79
2024/04/22 12:40:06;;;;;;;2.97;1.60;;;;;;;10.03;87.64;99902.81;5349789;26;20352;-78
2024/04/22 12:43:12;;;;;;;2.47;1.70;;;;;;;10.27;88.51;99909.44;5349701;26;20024;-80
2024/04/22 12:46:17;;;;;;;3.53;2.20;;;;;;;10.26;88.63;99896.19;5349783;26;20025;-77
2024/04/22 12:52:45;;;;;;;2.95;1.63;;;;;;;10.20;89.78;99904.81;5349151;26;20021;-76
2024/04/22 12:55:49;;;;;;;2.70;1.65;;;;;;;10.25;89.42;99905.22;5349297;26;20025;-75
2024/04/22 12:58:56;;;;;;;3.85;1.38;;;;;;;10.16;89.71;99900.72;5348065;26;20025;-76
2024/04/22 13:02:03;;;;;;;3.35;1.88;;;;;;;10.37;89.78;99898.69;5349077;26;20025;-76
2024/04/22 13:05:08;;;;;;;3.10;1.60;;;;;;;10.41;89.37;99894.75;5349164;26;20029;-77
2024/04/22 13:08:12;;;;;;;2.92;1.67;;;;;;;10.45;89.24;99909.56;5349012;26;20022;-75
2024/04/22 13:11:21;;;;;;;3.75;1.63;;;;;;;10.55;89.13;99912.22;5349049;26;20040;-75
2024/04/22 13:14:27;;;;;;;2.88;1.75;;;;;;;10.56;89.46;99906.72;5347552;26;20029;-76
2024/04/22 13:17:32;;;;;;;3.60;1.90;;;;;;;10.58;89.39;99903.88;5348871;26;20028;-75
2024/04/22 13:20:36;;;;;;;3.90;1.90;;;;;;;10.57;89.39;99905.72;5347655;26;20356;-76
2024/04/22 13:23:41;;;;;;;5.70;2.28;;;;;;;10.43;89.43;99901.66;5348777;26;20029;-76
2024/04/22 13:26:46;;;;;;;3.30;2.10;;;;;;;10.35;90.00;99901.53;5348802;26;20028;-77
2024/04/22 13:29:56;;;;;;;4.13;2.40;;;;;;;10.41;90.81;99902.81;5348700;26;20031;-75
2024/04/22 13:33:02;;;;;;;3.92;2.38;;;;;;;10.46;91.07;99895.16;5348761;26;20021;-76
2024/04/22 13:36:08;;;;;;;3.80;2.50;;;;;;;10.48;90.55;99895.00;5348736;26;20024;-75
2024/04/22 13:39:12;;;;;;;3.63;1.92;;;;;;;10.52;90.42;99899.94;5348616;26;20025;-74
2024/04/22 13:42:19;;;;;;;2.90;1.70;;;;;;;10.26;90.84;99909.59;5349097;26;20367;-75
2024/04/22 13:45:24;;;;;;;4.78;2.35;;;;;;;10.17;90.53;99910.47;5348243;26;20364;-75
2024/04/22 13:48:30;;;;;;;3.92;2.83;;;;;;;10.07;90.36;99912.28;5348451;26;20021;-75
2024/04/22 13:51:34;;;;;;;3.22;2.03;;;;;;;10.11;90.21;99906.50;5348354;26;20029;-76
2024/04/22 13:54:39;;;;;;;3.25;1.83;;;;;;;9.99;90.69;99920.19;5347234;26;20021;-77
2024/04/22 13:57:46;;;;;;;3.63;2.10;;;;;;;10.07;90.44;99923.00;5348266;26;20480;-77
2024/04/22 14:00:51;;;;;;;3.50;2.20;;;;;;;10.20;90.77;99915.53;5347080;26;20029;-79
2024/04/22 14:03:56;;;;;;;4.85;2.30;;;;;;;10.27;90.06;99916.69;5347264;26;20355;-79
2024/04/22 14:07:01;;;;;;;4.53;2.35;;;;;;;10.23;90.41;99917.94;5348304;26;20025;-80
2024/04/22 14:10:06;;;;;;;3.28;2.30;;;;;;;10.28;90.28;99913.84;5346863;26;20021;-80
2024/04/22 14:13:12;;;;;;;3.55;2.35;;;;;;;10.31;90.27;99913.56;5348340;26;20029;-78
2024/04/22 14:16:17;;;;;;;5.65;2.72;;;;;;;10.24;90.42;99925.00;5348631;26;20025;-79
2024/04/22 14:19:22;;;;;;;5.60;2.33;;;;;;;10.22;90.66;99921.63;5348295;26;20025;-76
2024/04/22 14:22:27;;;;;;;3.58;2.30;;;;;;;10.23;90.23;99934.88;5347946;26;20025;-80
2024/04/22 14:25:44;;;;;;;5.80;3.30;;;;;;;10.14;90.37;99929.53;5347683;26;20024;-76
2024/04/22 14:28:50;;;;;;;4.55;2.85;;;;;;;10.09;90.51;99934.44;5348558;26;20021;-75
2024/04/22 14:31:55;;;;;;;3.78;2.60;;;;;;;10.19;91.11;99932.63;5347724;26;20025;-76
2024/04/22 14:35:01;;;;;;;4.47;3.22;;;;;;;10.15;90.80;99939.25;5347833;26;20021;-76
2024/04/22 14:38:06;;;;;;;3.30;2.60;;;;;;;10.12;89.99;99936.88;5347801;26;20379;-76
2024/04/22 14:41:11;;;;;;;5.97;3.25;;;;;;;10.07;90.33;99945.31;5346367;26;20025;-76
2024/04/22 14:44:16;;;;;;;4.55;2.80;;;;;;;10.14;89.65;99956.34;5347553;26;20029;-77
2024/04/22 14:47:21;;;;;;;4.13;2.80;;;;;;;10.21;88.88;99949.41;5346541;26;20029;-76
2024/04/22 14:50:26;;;;;;;4.80;2.75;;;;;;;10.21;89.92;99944.06;5346255;26;20021;-75